Union Ranger — SYMB — position and weather

sailwx.info

Track history (hours):
 
Tides and Currents Weather Stations Pressure Air Temp Water Temp Dewpoint Dewpoint Depression Visibility Wind Speed Wind Dir Waves Ship Positions

Union Ranger

Last reported at 2014-Aug-28 04:05 UTC. Time now 2014-Aug-28 07:29 UTC.
Position N 36°42' E 005°13'.

Length 185 m; draft 10.4 m.

Type: Cargo ship. MMSI: 240070000.

Date/timePositionNaut miles runAvg speedWind from/ knotsBaromVisibWave heightAir tempDewpointWater temp
2014-Aug-28 04:05N 36°42' E 005°13'0 0.0
2014-Aug-28 03:29N 36°42' E 005°13'0 0.0
2014-Aug-28 01:29N 36°42' E 005°13'0 0.0
2014-Aug-28 00:32N 36°42' E 005°13'0 0.2
2014-Aug-27 23:30N 36°42' E 005°13'4 4.5
2014-Aug-27 22:33N 36°46' E 005°12'1510.6
2014-Aug-27 21:10N 36°56' E 004°58'711.5
2014-Aug-27 20:33N 36°59' E 004°50'1212.2
2014-Aug-27 19:33N 37°03' E 004°36'1312.5
2014-Aug-27 18:33N 37°05' E 004°20'1212.5
2014-Aug-27 17:33N 37°07' E 004°05'1212.3
2014-Aug-27 16:33N 37°06' E 003°49'1212.4
2014-Aug-27 15:33N 37°04' E 003°34'1412.4
2014-Aug-27 14:27N 37°03' E 003°17'1112.0
2014-Aug-27 13:33N 37°01' E 003°04'1212.3
2014-Aug-27 12:33N 36°60' E 002°48'1312.6
2014-Aug-27 11:33N 36°58' E 002°33'1312.6
2014-Aug-27 10:33N 36°55' E 002°17'1312.5
2014-Aug-27 09:33N 36°52' E 002°02'1212.2
2014-Aug-27 08:33N 36°52' E 001°47'1211.8
2014-Aug-27 07:33N 36°50' E 001°32'1212.1
2014-Aug-27 06:31N 36°48' E 001°17'1212.3
2014-Aug-27 05:32N 36°46' E 001°02'1212.7
2014-Aug-27 04:33N 36°44' E 000°47'1313.5
2014-Aug-27 03:33N 36°42' E 000°30'1313.0
2014-Aug-27 02:33N 36°40' E 000°14'1312.3
2014-Aug-27 01:29N 36°38' W 000°02'1711.8
2014-Aug-27 00:05N 36°36' W 000°23'611.7
2014-Aug-26 23:33N 36°35' W 000°30'1311.8
2014-Aug-26 22:28N 36°32' W 000°46'1411.9
2014-Aug-26 21:19N 36°30' W 001°03'2212.0
2014-Aug-26 19:30N 36°27' W 001°29'1711.7
2014-Aug-26 18:04N 36°24' W 001°50'611.6
2014-Aug-26 17:33N 36°24' W 001°57'166 7.5
2014-Aug-25 19:16N 36°04' W 005°22'2 0.9
2014-Aug-25 17:29N 36°03' W 005°20'1 0.7
2014-Aug-25 16:18N 36°03' W 005°21'4 4.7
2014-Aug-25 15:31N 35°59' W 005°22'  
Track history (hours):
 
Tides and Currents Weather Stations Pressure Air Temp Water Temp Dewpoint Dewpoint Depression Visibility Wind Speed Wind Dir Waves Ship Positions

Union Ranger

Last reported at 2014-Aug-28 04:05 UTC. Time now 2014-Aug-28 07:29 UTC.
Position N 36°42' E 005°13'.

Length 185 m; draft 10.4 m.

Type: Cargo ship. MMSI: 240070000.

Date/timePositionNaut miles runAvg speedWind from/ knotsBaromVisibWave heightAir tempDewpointWater temp
2014-Aug-28 04:05N 36°42' E 005°13'0 0.0
2014-Aug-28 03:29N 36°42' E 005°13'0 0.0
2014-Aug-28 01:29N 36°42' E 005°13'0 0.0
2014-Aug-28 00:32N 36°42' E 005°13'0 0.2
2014-Aug-27 23:30N 36°42' E 005°13'4 4.5
2014-Aug-27 22:33N 36°46' E 005°12'1510.6
2014-Aug-27 21:10N 36°56' E 004°58'711.5
2014-Aug-27 20:33N 36°59' E 004°50'1212.2
2014-Aug-27 19:33N 37°03' E 004°36'1312.5
2014-Aug-27 18:33N 37°05' E 004°20'1212.5
2014-Aug-27 17:33N 37°07' E 004°05'1212.3
2014-Aug-27 16:33N 37°06' E 003°49'1212.4
2014-Aug-27 15:33N 37°04' E 003°34'1412.4
2014-Aug-27 14:27N 37°03' E 003°17'1112.0
2014-Aug-27 13:33N 37°01' E 003°04'1212.3
2014-Aug-27 12:33N 36°60' E 002°48'1312.6
2014-Aug-27 11:33N 36°58' E 002°33'1312.6
2014-Aug-27 10:33N 36°55' E 002°17'1312.5
2014-Aug-27 09:33N 36°52' E 002°02'1212.2
2014-Aug-27 08:33N 36°52' E 001°47'1211.8
2014-Aug-27 07:33N 36°50' E 001°32'1212.1
2014-Aug-27 06:31N 36°48' E 001°17'1212.3
2014-Aug-27 05:32N 36°46' E 001°02'1212.7
2014-Aug-27 04:33N 36°44' E 000°47'1313.5
2014-Aug-27 03:33N 36°42' E 000°30'1313.0
2014-Aug-27 02:33N 36°40' E 000°14'1312.3
2014-Aug-27 01:29N 36°38' W 000°02'1711.8
2014-Aug-27 00:05N 36°36' W 000°23'611.7
2014-Aug-26 23:33N 36°35' W 000°30'1311.8
2014-Aug-26 22:28N 36°32' W 000°46'1411.9
2014-Aug-26 21:19N 36°30' W 001°03'2212.0
2014-Aug-26 19:30N 36°27' W 001°29'1711.7
2014-Aug-26 18:04N 36°24' W 001°50'611.6
2014-Aug-26 17:33N 36°24' W 001°57'166 7.5
2014-Aug-25 19:16N 36°04' W 005°22'2 0.9
2014-Aug-25 17:29N 36°03' W 005°20'1 0.7
2014-Aug-25 16:18N 36°03' W 005°21'4 4.7
2014-Aug-25 15:31N 35°59' W 005°22'  

Dump ship's entire track history